sensor_id;sensor_type;location;lat;lon;timestamp;P1;P2;P0
62631;PMS5003;48703;51.248;-0.546;2023-11-19T00:00:40;10.04;7.70;
62631;PMS5003;48703;51.248;-0.546;2023-11-19T00:03:42;9.44;6.04;
62631;PMS5003;48703;51.248;-0.546;2023-11-19T00:06:43;10.21;6.10;
62631;PMS5003;48703;51.248;-0.546;2023-11-19T00:09:44;8.70;7.35;
62631;PMS5003;48703;51.248;-0.546;2023-11-19T00:12:46;6.77;6.03;
62631;PMS5003;48703;51.248;-0.546;2023-11-19T00:15:47;8.55;7.03;
62631;PMS5003;48703;51.248;-0.546;2023-11-19T00:18:47;10.04;7.34;
62631;PMS5003;48703;51.248;-0.546;2023-11-19T00:21:49;11.23;8.41;
62631;PMS5003;48703;51.248;-0.546;2023-11-19T00:24:51;8.81;6.31;
62631;PMS5003;48703;51.248;-0.546;2023-11-19T00:27:53;9.73;7.94;
62631;PMS5003;48703;51.248;-0.546;2023-11-19T00:30:55;7.41;5.04;
62631;PMS5003;48703;51.248;-0.546;2023-11-19T00:33:55;8.88;7.45;
62631;PMS5003;48703;51.248;-0.546;2023-11-19T00:36:57;8.01;5.46;
62631;PMS5003;48703;51.248;-0.546;2023-11-19T00:39:59;8.80;5.40;
62631;PMS5003;48703;51.248;-0.546;2023-11-19T00:43:00;7.21;5.33;
62631;PMS5003;48703;51.248;-0.546;2023-11-19T00:46:02;7.97;5.84;
62631;PMS5003;48703;51.248;-0.546;2023-11-19T00:49:03;8.30;6.60;
62631;PMS5003;48703;51.248;-0.546;2023-11-19T00:52:04;10.36;7.32;
62631;PMS5003;48703;51.248;-0.546;2023-11-19T00:55:06;7.33;4.67;
62631;PMS5003;48703;51.248;-0.546;2023-11-19T00:58:08;10.37;7.64;
62631;PMS5003;48703;51.248;-0.546;2023-11-19T01:01:11;9.48;6.77;
62631;PMS5003;48703;51.248;-0.546;2023-11-19T01:04:11;10.29;7.69;
62631;PMS5003;48703;51.248;-0.546;2023-11-19T01:07:13;8.88;6.57;
62631;PMS5003;48703;51.248;-0.546;2023-11-19T01:10:14;9.21;5.84;
62631;PMS5003;48703;51.248;-0.546;2023-11-19T01:13:15;9.43;6.63;
62631;PMS5003;48703;51.248;-0.546;2023-11-19T01:16:16;13.35;8.78;
62631;PMS5003;48703;51.248;-0.546;2023-11-19T01:19:18;8.78;5.75;
62631;PMS5003;48703;51.248;-0.546;2023-11-19T01:22:19;9.23;6.12;
62631;PMS5003;48703;51.248;-0.546;2023-11-19T01:25:20;8.16;6.71;
62631;PMS5003;48703;51.248;-0.546;2023-11-19T01:28:21;8.70;5.57;
62631;PMS5003;48703;51.248;-0.546;2023-11-19T01:31:23;9.57;6.74;
62631;PMS5003;48703;51.248;-0.546;2023-11-19T01:34:24;9.51;6.07;
62631;PMS5003;48703;51.248;-0.546;2023-11-19T01:37:26;9.30;6.93;
62631;PMS5003;48703;51.248;-0.546;2023-11-19T01:40:27;11.53;6.11;
62631;PMS5003;48703;51.248;-0.546;2023-11-19T01:43:32;9.90;5.71;
62631;PMS5003;48703;51.248;-0.546;2023-11-19T01:46:30;7.03;5.59;
62631;PMS5003;48703;51.248;-0.546;2023-11-19T01:49:31;9.34;6.34;
62631;PMS5003;48703;51.248;-0.546;2023-11-19T01:52:32;9.31;6.29;
62631;PMS5003;48703;51.248;-0.546;2023-11-19T01:55:33;10.83;7.03;
62631;PMS5003;48703;51.248;-0.546;2023-11-19T01:58:34;9.72;7.71;
62631;PMS5003;48703;51.248;-0.546;2023-11-19T02:01:35;7.80;4.66;
62631;PMS5003;48703;51.248;-0.546;2023-11-19T02:04:37;8.21;6.33;
62631;PMS5003;48703;51.248;-0.546;2023-11-19T02:07:39;6.91;5.67;
62631;PMS5003;48703;51.248;-0.546;2023-11-19T02:10:40;10.39;6.09;
62631;PMS5003;48703;51.248;-0.546;2023-11-19T02:13:41;9.21;6.81;
62631;PMS5003;48703;51.248;-0.546;2023-11-19T02:16:43;10.06;5.47;
62631;PMS5003;48703;51.248;-0.546;2023-11-19T02:19:45;6.33;4.31;
62631;PMS5003;48703;51.248;-0.546;2023-11-19T02:22:46;7.79;6.26;
62631;PMS5003;48703;51.248;-0.546;2023-11-19T02:25:50;11.86;7.54;
62631;PMS5003;48703;51.248;-0.546;2023-11-19T02:28:49;10.93;7.65;
62631;PMS5003;48703;51.248;-0.546;2023-11-19T02:31:50;6.74;6.00;
62631;PMS5003;48703;51.248;-0.546;2023-11-19T02:34:52;10.77;6.80;
62631;PMS5003;48703;51.248;-0.546;2023-11-19T02:37:54;9.53;6.79;
62631;PMS5003;48703;51.248;-0.546;2023-11-19T02:40:55;7.09;5.19;
62631;PMS5003;48703;51.248;-0.546;2023-11-19T02:43:56;6.37;4.31;
62631;PMS5003;48703;51.248;-0.546;2023-11-19T02:46:58;7.24;4.67;
62631;PMS5003;48703;51.248;-0.546;2023-11-19T02:50:00;8.42;6.62;
62631;PMS5003;48703;51.248;-0.546;2023-11-19T02:53:01;6.53;5.41;
62631;PMS5003;48703;51.248;-0.546;2023-11-19T02:56:02;6.84;4.66;
62631;PMS5003;48703;51.248;-0.546;2023-11-19T02:59:03;8.31;5.44;
62631;PMS5003;48703;51.248;-0.546;2023-11-19T03:02:05;6.04;5.53;
62631;PMS5003;48703;51.248;-0.546;2023-11-19T03:05:06;11.59;8.35;
62631;PMS5003;48703;51.248;-0.546;2023-11-19T03:08:07;8.01;6.13;
62631;PMS5003;48703;51.248;-0.546;2023-11-19T03:11:08;8.11;5.29;
62631;PMS5003;48703;51.248;-0.546;2023-11-19T03:14:09;8.99;6.63;
62631;PMS5003;48703;51.248;-0.546;2023-11-19T03:17:10;11.57;8.42;
62631;PMS5003;48703;51.248;-0.546;2023-11-19T03:20:12;7.79;5.39;
62631;PMS5003;48703;51.248;-0.546;2023-11-19T03:23:13;7.90;4.91;
62631;PMS5003;48703;51.248;-0.546;2023-11-19T03:26:15;7.17;5.20;
62631;PMS5003;48703;51.248;-0.546;2023-11-19T03:29:16;9.24;6.09;
62631;PMS5003;48703;51.248;-0.546;2023-11-19T03:32:17;10.99;6.81;
62631;PMS5003;48703;51.248;-0.546;2023-11-19T03:35:18;10.57;7.13;
62631;PMS5003;48703;51.248;-0.546;2023-11-19T03:38:20;6.74;4.49;
62631;PMS5003;48703;51.248;-0.546;2023-11-19T03:41:22;10.21;6.20;
62631;PMS5003;48703;51.248;-0.546;2023-11-19T03:44:24;9.43;6.51;
62631;PMS5003;48703;51.248;-0.546;2023-11-19T03:47:25;8.96;6.04;
62631;PMS5003;48703;51.248;-0.546;2023-11-19T03:50:27;8.79;5.37;
62631;PMS5003;48703;51.248;-0.546;2023-11-19T03:53:28;8.66;5.51;
62631;PMS5003;48703;51.248;-0.546;2023-11-19T03:56:30;6.39;4.56;
62631;PMS5003;48703;51.248;-0.546;2023-11-19T03:59:31;6.94;5.89;
62631;PMS5003;48703;51.248;-0.546;2023-11-19T04:02:32;10.11;6.23;
62631;PMS5003;48703;51.248;-0.546;2023-11-19T04:05:34;7.31;5.27;
62631;PMS5003;48703;51.248;-0.546;2023-11-19T04:08:36;9.11;5.53;
62631;PMS5003;48703;51.248;-0.546;2023-11-19T04:11:37;7.80;4.83;
62631;PMS5003;48703;51.248;-0.546;2023-11-19T04:14:38;9.39;6.37;
62631;PMS5003;48703;51.248;-0.546;2023-11-19T04:17:40;9.54;4.27;
62631;PMS5003;48703;51.248;-0.546;2023-11-19T04:20:42;8.79;5.04;
62631;PMS5003;48703;51.248;-0.546;2023-11-19T04:23:43;7.32;5.57;
62631;PMS5003;48703;51.248;-0.546;2023-11-19T04:26:44;10.32;8.23;
62631;PMS5003;48703;51.248;-0.546;2023-11-19T04:29:46;6.44;5.17;
62631;PMS5003;48703;51.248;-0.546;2023-11-19T04:32:47;8.93;4.73;
62631;PMS5003;48703;51.248;-0.546;2023-11-19T04:35:48;8.57;6.41;
62631;PMS5003;48703;51.248;-0.546;2023-11-19T04:38:49;8.28;4.72;
62631;PMS5003;48703;51.248;-0.546;2023-11-19T04:41:50;7.55;5.94;
62631;PMS5003;48703;51.248;-0.546;2023-11-19T04:44:52;8.97;6.20;
62631;PMS5003;48703;51.248;-0.546;2023-11-19T04:47:53;6.76;5.47;
62631;PMS5003;48703;51.248;-0.546;2023-11-19T04:50:55;6.33;4.24;
62631;PMS5003;48703;51.248;-0.546;2023-11-19T04:53:57;7.46;5.41;
62631;PMS5003;48703;51.248;-0.546;2023-11-19T04:56:58;7.80;5.32;
62631;PMS5003;48703;51.248;-0.546;2023-11-19T04:59:59;8.24;5.46;
62631;PMS5003;48703;51.248;-0.546;2023-11-19T05:03:01;7.74;5.24;
62631;PMS5003;48703;51.248;-0.546;2023-11-19T05:06:02;6.77;4.73;
62631;PMS5003;48703;51.248;-0.546;2023-11-19T05:09:04;6.13;4.33;
62631;PMS5003;48703;51.248;-0.546;2023-11-19T05:12:05;5.59;4.41;
62631;PMS5003;48703;51.248;-0.546;2023-11-19T05:15:06;8.94;4.79;
62631;PMS5003;48703;51.248;-0.546;2023-11-19T05:18:08;7.73;4.74;
62631;PMS5003;48703;51.248;-0.546;2023-11-19T05:21:09;5.83;4.19;
62631;PMS5003;48703;51.248;-0.546;2023-11-19T05:24:11;5.93;4.44;
62631;PMS5003;48703;51.248;-0.546;2023-11-19T05:27:13;7.77;4.91;
62631;PMS5003;48703;51.248;-0.546;2023-11-19T05:30:14;6.87;5.97;
62631;PMS5003;48703;51.248;-0.546;2023-11-19T05:33:15;5.59;3.66;
62631;PMS5003;48703;51.248;-0.546;2023-11-19T05:36:16;8.81;5.96;
62631;PMS5003;48703;51.248;-0.546;2023-11-19T05:39:18;7.33;6.14;
62631;PMS5003;48703;51.248;-0.546;2023-11-19T05:42:19;5.80;4.16;
62631;PMS5003;48703;51.248;-0.546;2023-11-19T05:45:21;6.37;4.49;
62631;PMS5003;48703;51.248;-0.546;2023-11-19T05:48:22;8.72;6.03;
62631;PMS5003;48703;51.248;-0.546;2023-11-19T05:51:24;8.43;4.41;
62631;PMS5003;48703;51.248;-0.546;2023-11-19T05:54:25;9.06;6.58;
62631;PMS5003;48703;51.248;-0.546;2023-11-19T05:57:26;7.69;4.41;
62631;PMS5003;48703;51.248;-0.546;2023-11-19T06:00:28;7.19;5.07;
62631;PMS5003;48703;51.248;-0.546;2023-11-19T06:03:29;9.83;4.63;
62631;PMS5003;48703;51.248;-0.546;2023-11-19T06:06:31;5.83;4.40;
62631;PMS5003;48703;51.248;-0.546;2023-11-19T06:09:32;5.70;4.26;
62631;PMS5003;48703;51.248;-0.546;2023-11-19T06:12:34;6.24;4.73;
62631;PMS5003;48703;51.248;-0.546;2023-11-19T06:15:35;6.34;4.33;
62631;PMS5003;48703;51.248;-0.546;2023-11-19T06:18:37;6.01;4.07;
62631;PMS5003;48703;51.248;-0.546;2023-11-19T06:21:38;4.49;3.33;
62631;PMS5003;48703;51.248;-0.546;2023-11-19T06:24:40;7.17;5.57;
62631;PMS5003;48703;51.248;-0.546;2023-11-19T06:27:41;6.56;4.46;
62631;PMS5003;48703;51.248;-0.546;2023-11-19T06:30:43;5.11;3.93;
62631;PMS5003;48703;51.248;-0.546;2023-11-19T06:33:45;8.36;4.31;
62631;PMS5003;48703;51.248;-0.546;2023-11-19T06:36:46;5.65;4.33;
62631;PMS5003;48703;51.248;-0.546;2023-11-19T06:39:48;5.80;4.04;
62631;PMS5003;48703;51.248;-0.546;2023-11-19T06:42:49;7.69;5.79;
62631;PMS5003;48703;51.248;-0.546;2023-11-19T06:45:51;5.81;4.79;
62631;PMS5003;48703;51.248;-0.546;2023-11-19T06:48:52;5.51;3.99;
62631;PMS5003;48703;51.248;-0.546;2023-11-19T06:51:54;4.21;3.57;
62631;PMS5003;48703;51.248;-0.546;2023-11-19T06:54:55;6.89;4.76;
62631;PMS5003;48703;51.248;-0.546;2023-11-19T06:57:57;6.73;5.21;
62631;PMS5003;48703;51.248;-0.546;2023-11-19T07:00:58;4.06;3.17;
62631;PMS5003;48703;51.248;-0.546;2023-11-19T07:04:00;6.67;5.09;
62631;PMS5003;48703;51.248;-0.546;2023-11-19T07:07:02;4.64;2.29;
62631;PMS5003;48703;51.248;-0.546;2023-11-19T07:10:03;5.73;3.40;
62631;PMS5003;48703;51.248;-0.546;2023-11-19T07:13:04;4.84;3.66;
62631;PMS5003;48703;51.248;-0.546;2023-11-19T07:16:07;5.87;4.63;
62631;PMS5003;48703;51.248;-0.546;2023-11-19T07:19:07;5.04;3.91;
62631;PMS5003;48703;51.248;-0.546;2023-11-19T07:22:09;5.56;4.11;
62631;PMS5003;48703;51.248;-0.546;2023-11-19T07:25:10;4.66;3.86;
62631;PMS5003;48703;51.248;-0.546;2023-11-19T07:28:12;4.59;2.59;
62631;PMS5003;48703;51.248;-0.546;2023-11-19T07:31:13;5.04;3.46;
62631;PMS5003;48703;51.248;-0.546;2023-11-19T07:34:15;6.17;4.20;
62631;PMS5003;48703;51.248;-0.546;2023-11-19T07:37:16;4.10;2.10;
62631;PMS5003;48703;51.248;-0.546;2023-11-19T07:40:18;6.89;5.04;
62631;PMS5003;48703;51.248;-0.546;2023-11-19T07:43:19;6.52;4.90;
62631;PMS5003;48703;51.248;-0.546;2023-11-19T07:46:21;3.89;2.63;
62631;PMS5003;48703;51.248;-0.546;2023-11-19T07:49:22;4.36;3.16;
62631;PMS5003;48703;51.248;-0.546;2023-11-19T07:52:24;4.64;4.04;
62631;PMS5003;48703;51.248;-0.546;2023-11-19T07:55:25;2.50;1.76;
62631;PMS5003;48703;51.248;-0.546;2023-11-19T07:58:26;3.39;2.39;
62631;PMS5003;48703;51.248;-0.546;2023-11-19T08:01:28;5.03;3.33;
62631;PMS5003;48703;51.248;-0.546;2023-11-19T08:04:29;4.77;2.63;
62631;PMS5003;48703;51.248;-0.546;2023-11-19T08:07:31;3.50;3.19;
62631;PMS5003;48703;51.248;-0.546;2023-11-19T08:10:32;4.77;2.53;
62631;PMS5003;48703;51.248;-0.546;2023-11-19T08:13:34;5.61;2.90;
62631;PMS5003;48703;51.248;-0.546;2023-11-19T08:16:35;6.17;3.75;
62631;PMS5003;48703;51.248;-0.546;2023-11-19T08:19:36;4.23;2.97;
62631;PMS5003;48703;51.248;-0.546;2023-11-19T08:22:38;3.69;3.11;
62631;PMS5003;48703;51.248;-0.546;2023-11-19T08:25:40;3.87;3.10;
62631;PMS5003;48703;51.248;-0.546;2023-11-19T08:28:41;5.56;2.91;
62631;PMS5003;48703;51.248;-0.546;2023-11-19T08:31:43;4.70;4.16;
62631;PMS5003;48703;51.248;-0.546;2023-11-19T08:34:44;5.13;3.26;
62631;PMS5003;48703;51.248;-0.546;2023-11-19T08:37:46;4.31;3.49;
62631;PMS5003;48703;51.248;-0.546;2023-11-19T08:40:47;4.80;3.30;
62631;PMS5003;48703;51.248;-0.546;2023-11-19T08:43:49;5.74;4.01;
62631;PMS5003;48703;51.248;-0.546;2023-11-19T08:46:50;4.84;3.00;
62631;PMS5003;48703;51.248;-0.546;2023-11-19T08:49:52;5.94;3.61;
62631;PMS5003;48703;51.248;-0.546;2023-11-19T08:52:53;5.47;4.07;
62631;PMS5003;48703;51.248;-0.546;2023-11-19T08:55:55;4.63;2.86;
62631;PMS5003;48703;51.248;-0.546;2023-11-19T08:58:56;2.71;2.24;
62631;PMS5003;48703;51.248;-0.546;2023-11-19T09:01:57;7.27;4.14;
62631;PMS5003;48703;51.248;-0.546;2023-11-19T09:04:59;6.83;5.26;
62631;PMS5003;48703;51.248;-0.546;2023-11-19T09:08:01;8.33;5.67;
62631;PMS5003;48703;51.248;-0.546;2023-11-19T09:11:06;5.29;3.61;
62631;PMS5003;48703;51.248;-0.546;2023-11-19T09:14:04;8.24;4.41;
62631;PMS5003;48703;51.248;-0.546;2023-11-19T09:17:06;8.17;5.41;
62631;PMS5003;48703;51.248;-0.546;2023-11-19T09:20:08;6.24;4.26;
62631;PMS5003;48703;51.248;-0.546;2023-11-19T09:23:09;7.46;4.96;
62631;PMS5003;48703;51.248;-0.546;2023-11-19T09:26:11;4.91;3.93;
62631;PMS5003;48703;51.248;-0.546;2023-11-19T09:29:12;5.50;4.41;
62631;PMS5003;48703;51.248;-0.546;2023-11-19T09:32:14;4.87;3.23;
62631;PMS5003;48703;51.248;-0.546;2023-11-19T09:35:14;6.94;5.30;
62631;PMS5003;48703;51.248;-0.546;2023-11-19T09:38:16;8.36;4.65;
62631;PMS5003;48703;51.248;-0.546;2023-11-19T09:41:17;5.46;4.43;
62631;PMS5003;48703;51.248;-0.546;2023-11-19T09:44:19;3.64;3.17;
62631;PMS5003;48703;51.248;-0.546;2023-11-19T09:47:20;5.00;3.07;
62631;PMS5003;48703;51.248;-0.546;2023-11-19T09:50:22;5.44;3.59;
62631;PMS5003;48703;51.248;-0.546;2023-11-19T09:53:23;4.04;2.07;
62631;PMS5003;48703;51.248;-0.546;2023-11-19T09:56:25;2.91;2.36;
62631;PMS5003;48703;51.248;-0.546;2023-11-19T09:59:27;6.27;2.41;
62631;PMS5003;48703;51.248;-0.546;2023-11-19T10:02:28;5.03;2.91;
62631;PMS5003;48703;51.248;-0.546;2023-11-19T10:05:30;7.10;3.09;
62631;PMS5003;48703;51.248;-0.546;2023-11-19T10:08:31;2.64;1.79;
62631;PMS5003;48703;51.248;-0.546;2023-11-19T10:11:33;5.23;5.23;
62631;PMS5003;48703;51.248;-0.546;2023-11-19T10:14:34;5.04;2.80;
62631;PMS5003;48703;51.248;-0.546;2023-11-19T10:17:36;3.51;2.07;
62631;PMS5003;48703;51.248;-0.546;2023-11-19T10:20:37;3.56;1.99;
62631;PMS5003;48703;51.248;-0.546;2023-11-19T10:23:55;3.16;2.43;
62631;PMS5003;48703;51.248;-0.546;2023-11-19T10:26:40;6.04;3.43;
62631;PMS5003;48703;51.248;-0.546;2023-11-19T10:29:43;4.06;2.77;
62631;PMS5003;48703;51.248;-0.546;2023-11-19T10:32:43;4.24;2.29;
62631;PMS5003;48703;51.248;-0.546;2023-11-19T10:35:53;5.43;4.23;
62631;PMS5003;48703;51.248;-0.546;2023-11-19T10:38:54;5.04;2.93;
62631;PMS5003;48703;51.248;-0.546;2023-11-19T10:41:48;8.64;6.43;
62631;PMS5003;48703;51.248;-0.546;2023-11-19T10:44:50;7.21;5.16;
62631;PMS5003;48703;51.248;-0.546;2023-11-19T10:47:51;5.80;3.61;
62631;PMS5003;48703;51.248;-0.546;2023-11-19T10:50:53;6.11;5.29;
62631;PMS5003;48703;51.248;-0.546;2023-11-19T10:53:54;4.53;3.77;
62631;PMS5003;48703;51.248;-0.546;2023-11-19T10:56:58;4.40;1.81;
62631;PMS5003;48703;51.248;-0.546;2023-11-19T11:00:00;3.53;3.26;
62631;PMS5003;48703;51.248;-0.546;2023-11-19T11:03:00;3.51;3.51;
62631;PMS5003;48703;51.248;-0.546;2023-11-19T11:05:59;3.59;1.86;
62631;PMS5003;48703;51.248;-0.546;2023-11-19T11:09:01;4.91;3.29;
62631;PMS5003;48703;51.248;-0.546;2023-11-19T11:12:02;4.70;2.97;
62631;PMS5003;48703;51.248;-0.546;2023-11-19T11:15:04;4.63;2.34;
62631;PMS5003;48703;51.248;-0.546;2023-11-19T11:18:05;4.03;2.53;
62631;PMS5003;48703;51.248;-0.546;2023-11-19T11:21:08;5.06;3.41;
62631;PMS5003;48703;51.248;-0.546;2023-11-19T11:24:17;3.14;2.39;
62631;PMS5003;48703;51.248;-0.546;2023-11-19T11:27:19;6.23;3.67;
62631;PMS5003;48703;51.248;-0.546;2023-11-19T11:30:15;3.27;2.91;
62631;PMS5003;48703;51.248;-0.546;2023-11-19T11:33:20;4.70;3.17;
62631;PMS5003;48703;51.248;-0.546;2023-11-19T11:36:17;4.56;2.86;
62631;PMS5003;48703;51.248;-0.546;2023-11-19T11:39:16;3.56;2.24;
62631;PMS5003;48703;51.248;-0.546;2023-11-19T11:42:30;4.39;3.79;
62631;PMS5003;48703;51.248;-0.546;2023-11-19T11:45:19;5.86;3.60;
62631;PMS5003;48703;51.248;-0.546;2023-11-19T11:48:21;4.29;1.74;
62631;PMS5003;48703;51.248;-0.546;2023-11-19T11:51:36;5.24;3.03;
62631;PMS5003;48703;51.248;-0.546;2023-11-19T11:54:25;4.70;3.79;
62631;PMS5003;48703;51.248;-0.546;2023-11-19T11:57:26;5.74;2.94;
62631;PMS5003;48703;51.248;-0.546;2023-11-19T12:00:27;4.26;2.36;
62631;PMS5003;48703;51.248;-0.546;2023-11-19T12:03:29;5.31;2.66;
62631;PMS5003;48703;51.248;-0.546;2023-11-19T12:06:31;4.57;2.69;
62631;PMS5003;48703;51.248;-0.546;2023-11-19T12:09:31;4.09;2.60;
62631;PMS5003;48703;51.248;-0.546;2023-11-19T12:12:33;3.70;3.29;
62631;PMS5003;48703;51.248;-0.546;2023-11-19T12:15:39;2.86;2.13;
62631;PMS5003;48703;51.248;-0.546;2023-11-19T12:18:36;3.87;3.23;
62631;PMS5003;48703;51.248;-0.546;2023-11-19T12:21:37;4.33;2.69;
62631;PMS5003;48703;51.248;-0.546;2023-11-19T12:24:39;4.26;2.86;
62631;PMS5003;48703;51.248;-0.546;2023-11-19T12:27:41;5.46;3.23;
62631;PMS5003;48703;51.248;-0.546;2023-11-19T12:30:42;2.57;2.57;
62631;PMS5003;48703;51.248;-0.546;2023-11-19T12:33:43;4.48;3.33;
62631;PMS5003;48703;51.248;-0.546;2023-11-19T12:36:44;2.66;2.34;
62631;PMS5003;48703;51.248;-0.546;2023-11-19T12:39:46;3.23;2.53;
62631;PMS5003;48703;51.248;-0.546;2023-11-19T12:42:48;3.39;2.63;
62631;PMS5003;48703;51.248;-0.546;2023-11-19T12:45:49;2.99;2.73;
62631;PMS5003;48703;51.248;-0.546;2023-11-19T12:48:51;3.70;2.50;
62631;PMS5003;48703;51.248;-0.546;2023-11-19T12:51:52;3.50;1.70;
62631;PMS5003;48703;51.248;-0.546;2023-11-19T12:54:53;4.84;3.39;
62631;PMS5003;48703;51.248;-0.546;2023-11-19T12:57:55;3.03;1.87;
62631;PMS5003;48703;51.248;-0.546;2023-11-19T13:01:00;3.53;2.54;
62631;PMS5003;48703;51.248;-0.546;2023-11-19T13:03:58;4.21;2.96;
62631;PMS5003;48703;51.248;-0.546;2023-11-19T13:07:00;2.94;1.99;
62631;PMS5003;48703;51.248;-0.546;2023-11-19T13:10:01;3.20;1.31;
62631;PMS5003;48703;51.248;-0.546;2023-11-19T13:13:04;1.69;1.34;
62631;PMS5003;48703;51.248;-0.546;2023-11-19T13:16:05;2.21;1.30;
62631;PMS5003;48703;51.248;-0.546;2023-11-19T13:19:06;1.54;1.04;
62631;PMS5003;48703;51.248;-0.546;2023-11-19T13:22:08;2.94;2.07;
62631;PMS5003;48703;51.248;-0.546;2023-11-19T13:25:09;3.20;1.46;
62631;PMS5003;48703;51.248;-0.546;2023-11-19T13:28:11;3.34;2.59;
62631;PMS5003;48703;51.248;-0.546;2023-11-19T13:31:13;2.70;1.90;
62631;PMS5003;48703;51.248;-0.546;2023-11-19T13:34:14;2.29;2.03;
62631;PMS5003;48703;51.248;-0.546;2023-11-19T13:37:16;1.09;1.09;
62631;PMS5003;48703;51.248;-0.546;2023-11-19T13:40:17;3.59;1.76;
62631;PMS5003;48703;51.248;-0.546;2023-11-19T13:43:19;1.99;1.69;
62631;PMS5003;48703;51.248;-0.546;2023-11-19T13:46:20;3.11;1.06;
62631;PMS5003;48703;51.248;-0.546;2023-11-19T13:49:22;3.29;1.33;
62631;PMS5003;48703;51.248;-0.546;2023-11-19T13:52:23;1.59;1.00;
62631;PMS5003;48703;51.248;-0.546;2023-11-19T13:55:25;2.99;1.73;
62631;PMS5003;48703;51.248;-0.546;2023-11-19T13:58:26;0.94;0.74;
62631;PMS5003;48703;51.248;-0.546;2023-11-19T14:01:28;2.34;1.53;
62631;PMS5003;48703;51.248;-0.546;2023-11-19T14:04:29;1.16;1.13;
62631;PMS5003;48703;51.248;-0.546;2023-11-19T14:07:31;1.46;0.71;
62631;PMS5003;48703;51.248;-0.546;2023-11-19T14:10:32;2.01;1.11;
62631;PMS5003;48703;51.248;-0.546;2023-11-19T14:13:34;1.90;1.40;
62631;PMS5003;48703;51.248;-0.546;2023-11-19T14:16:35;1.19;0.59;
62631;PMS5003;48703;51.248;-0.546;2023-11-19T14:19:37;1.99;1.70;
62631;PMS5003;48703;51.248;-0.546;2023-11-19T14:22:38;2.27;1.63;
62631;PMS5003;48703;51.248;-0.546;2023-11-19T14:25:40;1.86;1.30;
62631;PMS5003;48703;51.248;-0.546;2023-11-19T14:28:41;2.03;0.91;
62631;PMS5003;48703;51.248;-0.546;2023-11-19T14:31:43;1.56;1.04;
62631;PMS5003;48703;51.248;-0.546;2023-11-19T14:34:44;2.01;1.33;
62631;PMS5003;48703;51.248;-0.546;2023-11-19T14:37:45;1.89;1.30;
62631;PMS5003;48703;51.248;-0.546;2023-11-19T14:40:47;2.93;2.06;
62631;PMS5003;48703;51.248;-0.546;2023-11-19T14:43:48;1.66;1.31;
62631;PMS5003;48703;51.248;-0.546;2023-11-19T14:46:50;3.01;1.39;
62631;PMS5003;48703;51.248;-0.546;2023-11-19T14:49:51;1.04;0.81;
62631;PMS5003;48703;51.248;-0.546;2023-11-19T14:52:53;1.36;1.36;
62631;PMS5003;48703;51.248;-0.546;2023-11-19T14:55:54;1.69;1.36;
62631;PMS5003;48703;51.248;-0.546;2023-11-19T14:58:56;1.94;1.57;
62631;PMS5003;48703;51.248;-0.546;2023-11-19T15:01:57;3.10;1.81;
62631;PMS5003;48703;51.248;-0.546;2023-11-19T15:04:59;2.29;1.06;
62631;PMS5003;48703;51.248;-0.546;2023-11-19T15:08:00;2.06;1.29;
62631;PMS5003;48703;51.248;-0.546;2023-11-19T15:11:02;1.39;0.80;
62631;PMS5003;48703;51.248;-0.546;2023-11-19T15:14:03;2.93;1.67;
62631;PMS5003;48703;51.248;-0.546;2023-11-19T15:17:04;3.88;2.10;
62631;PMS5003;48703;51.248;-0.546;2023-11-19T15:20:06;2.71;2.20;
62631;PMS5003;48703;51.248;-0.546;2023-11-19T15:23:08;1.31;1.13;
62631;PMS5003;48703;51.248;-0.546;2023-11-19T15:26:09;1.66;1.23;
62631;PMS5003;48703;51.248;-0.546;2023-11-19T15:29:11;1.91;0.63;
62631;PMS5003;48703;51.248;-0.546;2023-11-19T15:32:12;0.84;0.70;
62631;PMS5003;48703;51.248;-0.546;2023-11-19T15:35:14;0.76;0.76;
62631;PMS5003;48703;51.248;-0.546;2023-11-19T15:38:15;0.53;0.53;
62631;PMS5003;48703;51.248;-0.546;2023-11-19T15:41:17;1.51;0.83;
62631;PMS5003;48703;51.248;-0.546;2023-11-19T15:44:18;1.09;0.71;
62631;PMS5003;48703;51.248;-0.546;2023-11-19T15:47:20;0.89;0.89;
62631;PMS5003;48703;51.248;-0.546;2023-11-19T15:50:21;2.06;1.33;
62631;PMS5003;48703;51.248;-0.546;2023-11-19T15:53:23;1.10;0.59;
62631;PMS5003;48703;51.248;-0.546;2023-11-19T15:56:24;2.73;1.79;
62631;PMS5003;48703;51.248;-0.546;2023-11-19T15:59:25;2.57;1.80;
62631;PMS5003;48703;51.248;-0.546;2023-11-19T16:02:27;1.77;1.26;
62631;PMS5003;48703;51.248;-0.546;2023-11-19T16:05:28;3.01;1.90;
62631;PMS5003;48703;51.248;-0.546;2023-11-19T16:08:30;2.73;1.47;
62631;PMS5003;48703;51.248;-0.546;2023-11-19T16:11:32;2.91;1.54;
62631;PMS5003;48703;51.248;-0.546;2023-11-19T16:14:33;1.20;0.47;
62631;PMS5003;48703;51.248;-0.546;2023-11-19T16:17:35;3.56;2.47;
62631;PMS5003;48703;51.248;-0.546;2023-11-19T16:20:36;1.06;0.83;
62631;PMS5003;48703;51.248;-0.546;2023-11-19T16:23:38;3.39;1.74;
62631;PMS5003;48703;51.248;-0.546;2023-11-19T16:26:39;1.77;0.91;
62631;PMS5003;48703;51.248;-0.546;2023-11-19T16:29:41;1.20;1.20;
62631;PMS5003;48703;51.248;-0.546;2023-11-19T16:32:47;2.49;1.71;
62631;PMS5003;48703;51.248;-0.546;2023-11-19T16:35:44;2.26;1.87;
62631;PMS5003;48703;51.248;-0.546;2023-11-19T16:38:45;2.27;1.60;
62631;PMS5003;48703;51.248;-0.546;2023-11-19T16:41:47;1.60;1.16;
62631;PMS5003;48703;51.248;-0.546;2023-11-19T16:44:48;1.87;1.49;
62631;PMS5003;48703;51.248;-0.546;2023-11-19T16:47:50;0.71;0.71;
62631;PMS5003;48703;51.248;-0.546;2023-11-19T16:50:51;2.64;2.04;
62631;PMS5003;48703;51.248;-0.546;2023-11-19T16:53:53;2.09;1.27;
62631;PMS5003;48703;51.248;-0.546;2023-11-19T16:56:54;2.07;1.81;
62631;PMS5003;48703;51.248;-0.546;2023-11-19T16:59:56;1.84;1.54;
62631;PMS5003;48703;51.248;-0.546;2023-11-19T17:02:57;2.39;2.09;
62631;PMS5003;48703;51.248;-0.546;2023-11-19T17:06:00;1.84;1.84;
62631;PMS5003;48703;51.248;-0.546;2023-11-19T17:09:00;1.77;1.39;
62631;PMS5003;48703;51.248;-0.546;2023-11-19T17:12:02;2.37;1.81;
62631;PMS5003;48703;51.248;-0.546;2023-11-19T17:15:04;2.94;2.04;
62631;PMS5003;48703;51.248;-0.546;2023-11-19T17:18:05;2.80;2.37;
62631;PMS5003;48703;51.248;-0.546;2023-11-19T17:21:07;2.83;1.07;
62631;PMS5003;48703;51.248;-0.546;2023-11-19T22:52:08;2.04;2.04;
62631;PMS5003;48703;51.248;-0.546;2023-11-19T22:54:55;3.36;2.69;
62631;PMS5003;48703;51.248;-0.546;2023-11-19T22:57:57;4.10;2.87;
62631;PMS5003;48703;51.248;-0.546;2023-11-19T23:00:58;4.25;4.03;
62631;PMS5003;48703;51.248;-0.546;2023-11-19T23:04:00;2.74;2.74;
62631;PMS5003;48703;51.248;-0.546;2023-11-19T23:07:01;5.51;3.39;
62631;PMS5003;48703;51.248;-0.546;2023-11-19T23:10:03;3.10;2.01;
62631;PMS5003;48703;51.248;-0.546;2023-11-19T23:13:04;1.86;1.53;
62631;PMS5003;48703;51.248;-0.546;2023-11-19T23:16:06;8.60;5.84;
62631;PMS5003;48703;51.248;-0.546;2023-11-19T23:19:07;5.43;4.81;
62631;PMS5003;48703;51.248;-0.546;2023-11-19T23:22:09;5.11;3.77;
62631;PMS5003;48703;51.248;-0.546;2023-11-19T23:25:10;6.43;3.23;
62631;PMS5003;48703;51.248;-0.546;2023-11-19T23:28:12;5.80;4.37;
62631;PMS5003;48703;51.248;-0.546;2023-11-19T23:31:13;2.89;2.30;
62631;PMS5003;48703;51.248;-0.546;2023-11-19T23:34:15;4.19;2.27;
62631;PMS5003;48703;51.248;-0.546;2023-11-19T23:37:16;4.20;2.69;
62631;PMS5003;48703;51.248;-0.546;2023-11-19T23:40:18;5.90;3.69;
62631;PMS5003;48703;51.248;-0.546;2023-11-19T23:43:20;3.80;2.69;
62631;PMS5003;48703;51.248;-0.546;2023-11-19T23:46:22;4.40;2.89;
62631;PMS5003;48703;51.248;-0.546;2023-11-19T23:49:23;6.39;3.26;
62631;PMS5003;48703;51.248;-0.546;2023-11-19T23:52:25;5.20;3.53;
62631;PMS5003;48703;51.248;-0.546;2023-11-19T23:55:26;4.46;3.47;
62631;PMS5003;48703;51.248;-0.546;2023-11-19T23:58:28;4.21;2.67;